Time;durP1;ratioP1;P1;durP2;ratioP2;P2;SDS_P1;SDS_P2;PMS_P1;PMS_P2;Temp;Humidity;BMP_temperature;BMP_pressure;BME280_temperature;BME280_humidity;BME280_pressure;Samples;Min_cycle;Max_cycle;Signal;HPM_P1;HPM_P2
2021/11/13 00:01:13;;;;;;;64.97;25.37;;;4.50;99.90;;;;;;5058244;28;20115;-72
2021/11/13 00:03:40;;;;;;;72.43;26.00;;;4.50;99.90;;;;;;5057178;28;20056;-74
2021/11/13 00:06:07;;;;;;;66.47;25.90;;;4.50;99.90;;;;;;5057563;28;20098;-71
2021/11/13 00:08:34;;;;;;;62.10;24.60;;;4.40;99.90;;;;;;5058255;28;20057;-71
2021/11/13 00:11:04;;;;;;;59.53;24.13;;;4.40;99.90;;;;;;5059500;28;20110;-74
2021/11/13 00:13:31;;;;;;;56.83;22.73;;;4.40;99.90;;;;;;5057778;28;20080;-72
2021/11/13 00:15:58;;;;;;;64.07;24.17;;;4.40;99.90;;;;;;5057457;28;20551;-73
2021/11/13 00:18:25;;;;;;;64.13;24.00;;;4.40;99.90;;;;;;5058121;28;20048;-71
2021/11/13 00:20:52;;;;;;;64.27;24.67;;;4.40;99.90;;;;;;5058924;28;20444;-71
2021/11/13 00:23:19;;;;;;;55.70;22.20;;;4.50;99.90;;;;;;5057357;28;20080;-74
2021/11/13 00:25:47;;;;;;;57.20;23.80;;;4.40;99.90;;;;;;5057621;28;20044;-71
2021/11/13 00:28:15;;;;;;;51.03;21.93;;;4.40;99.90;;;;;;5057059;28;20084;-71
2021/11/13 00:30:43;;;;;;;57.33;22.97;;;4.40;99.90;;;;;;5057121;28;20049;-72
2021/11/13 00:33:10;;;;;;;61.33;21.77;;;4.40;99.90;;;;;;5057899;28;20114;-75
2021/11/13 00:35:37;;;;;;;54.20;21.40;;;4.40;99.90;;;;;;5055937;28;20501;-72
2021/11/13 00:38:05;;;;;;;46.27;21.07;;;4.30;99.90;;;;;;5057375;28;20048;-73
2021/11/13 00:40:32;;;;;;;53.67;22.40;;;4.40;99.90;;;;;;5056807;28;20571;-74
2021/11/13 00:42:59;;;;;;;51.87;21.27;;;4.40;99.90;;;;;;5056298;28;20044;-75
2021/11/13 00:45:28;;;;;;;51.50;20.43;;;4.20;99.90;;;;;;5057011;28;20072;-72
2021/11/13 00:47:55;;;;;;;46.17;20.03;;;4.30;99.90;;;;;;5056201;28;20090;-74
2021/11/13 00:50:23;;;;;;;47.93;20.33;;;4.40;99.90;;;;;;5055657;28;20082;-71
2021/11/13 00:52:50;;;;;;;51.27;20.90;;;4.40;99.90;;;;;;5056046;28;20056;-69
2021/11/13 00:55:20;;;;;;;45.80;20.17;;;4.30;99.90;;;;;;5054310;28;20145;-73
2021/11/13 00:57:47;;;;;;;51.63;21.03;;;4.30;99.90;;;;;;5055927;28;20052;-73
2021/11/13 01:00:17;;;;;;;50.57;19.43;;;4.30;99.90;;;;;;5056435;28;20041;-69
2021/11/13 01:02:46;;;;;;;51.83;21.63;;;4.30;99.90;;;;;;5057001;28;20048;-73
2021/11/13 01:05:13;;;;;;;46.55;19.63;;;4.30;99.90;;;;;;5056734;28;20080;-69
2021/11/13 01:07:40;;;;;;;49.07;20.30;;;4.30;99.90;;;;;;5056532;28;20484;-70
2021/11/13 01:10:09;;;;;;;44.73;18.93;;;4.30;99.90;;;;;;5056010;28;20581;-71
2021/11/13 01:12:37;;;;;;;47.20;20.33;;;4.30;99.90;;;;;;5056320;28;20052;-73
2021/11/13 01:15:06;;;;;;;48.83;20.43;;;4.30;99.90;;;;;;5055585;28;20611;-69
2021/11/13 01:17:33;;;;;;;49.47;22.03;;;4.30;99.90;;;;;;5054584;28;20072;-70
2021/11/13 01:20:02;;;;;;;50.90;20.50;;;4.30;99.90;;;;;;5055774;28;20049;-70
2021/11/13 01:22:29;;;;;;;47.23;21.40;;;4.30;99.90;;;;;;5055942;28;20044;-72
2021/11/13 01:24:56;;;;;;;48.30;21.03;;;4.30;99.90;;;;;;5056023;28;20109;-69
2021/11/13 01:27:23;;;;;;;53.37;22.97;;;4.30;99.90;;;;;;5056249;28;20113;-69
2021/11/13 01:29:50;;;;;;;47.93;20.27;;;4.20;99.90;;;;;;5056797;28;20106;-72
2021/11/13 01:32:17;;;;;;;49.70;19.73;;;4.20;99.90;;;;;;5054547;28;20052;-74
2021/11/13 01:34:44;;;;;;;50.97;19.87;;;4.20;99.90;;;;;;5055373;28;20040;-69
2021/11/13 01:37:13;;;;;;;45.57;19.83;;;4.30;99.90;;;;;;5055115;28;20466;-71
2021/11/13 01:39:40;;;;;;;44.73;18.57;;;4.30;99.90;;;;;;5055889;28;20049;-73
2021/11/13 01:42:08;;;;;;;41.53;19.17;;;4.30;99.90;;;;;;5056772;28;20045;-69
2021/11/13 01:44:36;;;;;;;47.43;18.13;;;4.30;99.90;;;;;;5055845;28;20499;-72
2021/11/13 01:47:03;;;;;;;46.90;18.70;;;4.30;99.90;;;;;;5057383;28;20548;-72
2021/11/13 01:49:30;;;;;;;44.37;18.43;;;4.30;99.90;;;;;;5055544;28;20944;-71
2021/11/13 01:51:57;;;;;;;42.23;17.93;;;4.40;99.90;;;;;;5055361;28;20143;-70
2021/11/13 01:54:27;;;;;;;44.70;19.00;;;4.30;99.90;;;;;;5056470;28;20068;-69
2021/11/13 01:56:54;;;;;;;49.03;19.87;;;4.30;99.90;;;;;;5057157;28;20048;-69
2021/11/13 01:59:24;;;;;;;44.03;19.17;;;4.30;99.90;;;;;;5056231;28;20069;-70
2021/11/13 02:01:51;;;;;;;45.90;20.00;;;4.30;99.90;;;;;;5058190;28;20044;-70
2021/11/13 02:04:18;;;;;;;44.57;18.37;;;4.30;99.90;;;;;;5057290;28;20052;-69
2021/11/13 02:06:45;;;;;;;43.27;19.03;;;4.20;99.90;;;;;;5055803;28;20170;-69
2021/11/13 02:09:12;;;;;;;43.43;18.03;;;4.30;99.90;;;;;;5056971;28;21402;-72
2021/11/13 02:11:41;;;;;;;46.67;19.10;;;4.30;99.90;;;;;;5057157;28;20089;-69
2021/11/13 02:14:08;;;;;;;44.87;19.50;;;4.30;99.90;;;;;;5056021;28;20498;-69
2021/11/13 02:16:35;;;;;;;45.77;19.23;;;4.30;99.90;;;;;;5055556;28;20048;-70
2021/11/13 02:19:02;;;;;;;43.90;20.10;;;4.30;99.90;;;;;;5056523;28;20105;-71
2021/11/13 02:21:30;;;;;;;47.17;20.70;;;4.30;99.90;;;;;;5057016;28;20101;-72
2021/11/13 02:23:57;;;;;;;45.83;19.33;;;4.30;99.90;;;;;;5057169;28;20045;-70
2021/11/13 02:26:25;;;;;;;42.80;17.90;;;4.20;99.90;;;;;;5056422;28;20041;-71
2021/11/13 02:28:55;;;;;;;43.20;19.33;;;4.30;99.90;;;;;;5057197;28;20056;-68
2021/11/13 02:31:32;;;;;;;45.93;20.23;;;4.30;99.90;;;;;;5055500;28;20060;-70
2021/11/13 02:33:59;;;;;;;45.50;20.33;;;4.30;99.90;;;;;;5055963;28;20105;-72
2021/11/13 02:36:27;;;;;;;45.83;19.73;;;4.30;99.90;;;;;;5056017;28;20486;-75
2021/11/13 02:38:58;;;;;;;43.93;18.17;;;4.20;99.90;;;;;;5057339;28;20056;-72
2021/11/13 02:41:27;;;;;;;46.00;19.43;;;4.20;99.90;;;;;;5056462;28;20083;-69
2021/11/13 02:43:55;;;;;;;44.83;19.50;;;4.20;99.90;;;;;;5056527;28;20052;-70
2021/11/13 02:46:22;;;;;;;38.63;17.40;;;4.20;99.90;;;;;;5061153;28;20121;-69
2021/11/13 02:48:49;;;;;;;37.87;16.63;;;4.20;99.90;;;;;;5061689;28;20102;-72
2021/11/13 02:51:17;;;;;;;38.57;17.20;;;4.10;99.90;;;;;;5061695;28;20105;-73
2021/11/13 02:53:48;;;;;;;38.17;17.07;;;4.10;99.90;;;;;;5058347;28;20132;-71
2021/11/13 02:56:17;;;;;;;38.03;16.60;;;4.10;99.90;;;;;;5058840;28;20108;-73
2021/11/13 02:58:44;;;;;;;33.10;15.37;;;4.10;99.90;;;;;;5058910;28;20095;-72
2021/11/13 03:01:13;;;;;;;37.43;17.37;;;4.10;99.90;;;;;;5059065;28;20048;-74
2021/11/13 03:03:41;;;;;;;39.03;16.47;;;4.00;99.90;;;;;;5058649;28;20106;-73
2021/11/13 03:06:10;;;;;;;37.80;17.60;;;4.00;99.90;;;;;;5057524;28;20082;-72
2021/11/13 03:08:38;;;;;;;38.57;16.27;;;4.00;99.90;;;;;;5058954;28;20449;-71
2021/11/13 03:11:07;;;;;;;37.07;17.40;;;4.00;99.90;;;;;;5058283;28;20089;-72
2021/11/13 03:13:38;;;;;;;38.13;16.43;;;4.10;99.90;;;;;;5058738;28;20056;-75
2021/11/13 03:16:07;;;;;;;36.00;16.70;;;4.00;99.90;;;;;;5057842;28;20091;-72
2021/11/13 03:18:34;;;;;;;34.77;16.60;;;4.00;99.90;;;;;;5055304;28;20685;-74
2021/11/13 03:21:05;;;;;;;34.03;15.97;;;4.00;99.90;;;;;;5055500;28;20052;-72
2021/11/13 03:23:32;;;;;;;36.00;15.23;;;4.00;99.90;;;;;;5055420;28;20059;-74
2021/11/13 03:26:01;;;;;;;35.33;14.93;;;4.00;99.90;;;;;;5054813;28;20049;-73
2021/11/13 03:28:31;;;;;;;31.10;15.33;;;4.00;99.90;;;;;;5056948;28;20083;-71
2021/11/13 03:31:02;;;;;;;32.57;14.93;;;4.00;99.90;;;;;;5056118;28;20094;-71
2021/11/13 03:33:30;;;;;;;33.37;15.57;;;4.00;99.90;;;;;;5055267;28;20413;-71
2021/11/13 03:35:57;;;;;;;31.37;14.17;;;4.00;99.90;;;;;;5056295;28;20084;-71
2021/11/13 03:38:24;;;;;;;31.90;14.23;;;3.90;99.90;;;;;;5058287;28;20045;-71
2021/11/13 03:40:52;;;;;;;29.97;14.10;;;4.00;99.90;;;;;;5054313;28;20491;-72
2021/11/13 03:43:19;;;;;;;36.60;15.20;;;4.00;99.90;;;;;;5054501;28;20049;-72
2021/11/13 03:45:48;;;;;;;35.40;16.30;;;4.00;99.90;;;;;;5053436;28;20554;-74
2021/11/13 03:48:17;;;;;;;34.03;16.03;;;4.00;99.90;;;;;;5053770;28;20044;-72
2021/11/13 03:50:45;;;;;;;32.17;15.30;;;4.10;99.90;;;;;;5055191;28;20040;-74
2021/11/13 03:53:12;;;;;;;30.03;14.67;;;3.90;99.90;;;;;;5055136;28;20075;-71
2021/11/13 03:55:39;;;;;;;30.93;14.90;;;3.90;99.90;;;;;;5055590;28;20086;-74
2021/11/13 03:58:07;;;;;;;28.93;13.93;;;3.90;99.90;;;;;;5058429;28;20464;-73
2021/11/13 04:00:35;;;;;;;35.43;15.13;;;3.90;99.90;;;;;;5056344;28;20690;-71
2021/11/13 04:03:02;;;;;;;28.27;14.27;;;3.90;99.90;;;;;;5057017;28;20040;-72
2021/11/13 04:05:30;;;;;;;28.87;13.80;;;3.80;99.90;;;;;;5053792;28;20048;-72
2021/11/13 04:07:57;;;;;;;28.37;13.50;;;3.80;99.90;;;;;;5055824;28;20066;-72
2021/11/13 04:10:24;;;;;;;28.97;14.23;;;3.80;99.90;;;;;;5055878;28;20044;-71
2021/11/13 04:12:52;;;;;;;28.70;13.20;;;3.70;99.90;;;;;;5055546;28;20044;-72
2021/11/13 04:15:19;;;;;;;28.50;13.97;;;3.80;99.90;;;;;;5054652;28;20057;-71
2021/11/13 04:17:48;;;;;;;30.33;14.17;;;3.80;99.90;;;;;;5056472;28;20137;-74
2021/11/13 04:20:17;;;;;;;32.43;15.20;;;3.80;99.90;;;;;;5054983;28;20055;-71
2021/11/13 04:22:47;;;;;;;30.03;14.63;;;3.80;99.90;;;;;;5055461;28;20056;-74
2021/11/13 04:25:15;;;;;;;31.53;14.90;;;3.80;99.90;;;;;;5055414;28;20464;-77
2021/11/13 04:27:42;;;;;;;28.90;15.10;;;3.80;99.90;;;;;;5055603;28;20056;-74
2021/11/13 04:30:13;;;;;;;32.97;16.20;;;3.80;99.90;;;;;;5056434;28;20064;-72
2021/11/13 04:32:41;;;;;;;34.10;14.57;;;3.80;99.90;;;;;;5055572;28;20045;-72
2021/11/13 04:35:20;;;;;;;31.20;15.37;;;3.80;99.90;;;;;;5054560;28;20467;-72
2021/11/13 04:37:52;;;;;;;30.73;15.00;;;3.80;99.90;;;;;;5055395;28;20116;-74
2021/11/13 04:40:21;;;;;;;29.23;15.33;;;3.80;99.90;;;;;;5056738;28;20521;-70
2021/11/13 04:42:47;;;;;;;26.33;14.23;;;3.80;99.90;;;;;;5055655;28;20535;-72
2021/11/13 04:45:15;;;;;;;29.33;13.60;;;3.80;99.90;;;;;;5054003;28;20044;-76
2021/11/13 04:47:42;;;;;;;30.97;15.47;;;3.80;99.90;;;;;;5056429;28;20703;-70
2021/11/13 04:50:14;;;;;;;29.60;14.60;;;3.80;99.90;;;;;;5056761;28;20413;-69
2021/11/13 04:52:42;;;;;;;29.13;13.53;;;3.80;99.90;;;;;;5055020;28;21584;-73
2021/11/13 04:55:11;;;;;;;28.57;13.47;;;3.70;99.90;;;;;;5056902;28;20040;-73
2021/11/13 04:57:38;;;;;;;27.20;13.00;;;3.70;99.90;;;;;;5053816;28;20102;-71
2021/11/13 05:00:09;;;;;;;27.13;14.70;;;3.70;99.90;;;;;;5050301;28;20075;-75
2021/11/13 05:02:36;;;;;;;28.03;12.90;;;3.70;99.90;;;;;;5050154;28;20088;-72
2021/11/13 05:05:03;;;;;;;28.43;14.03;;;3.60;99.90;;;;;;5049741;28;20041;-72
2021/11/13 05:07:30;;;;;;;25.73;12.83;;;3.60;99.90;;;;;;5048441;28;20048;-74
2021/11/13 05:09:58;;;;;;;27.33;13.83;;;3.60;99.90;;;;;;5051362;28;20044;-71
2021/11/13 05:12:26;;;;;;;29.47;13.70;;;3.60;99.90;;;;;;5055680;28;20413;-71
2021/11/13 05:14:53;;;;;;;26.03;13.10;;;3.60;99.90;;;;;;5054749;28;20044;-71
2021/11/13 05:17:20;;;;;;;25.07;12.27;;;3.60;99.90;;;;;;5053927;28;20071;-74
2021/11/13 05:19:47;;;;;;;29.87;13.70;;;3.60;99.90;;;;;;5054703;28;20048;-74
2021/11/13 05:22:14;;;;;;;26.10;12.87;;;3.60;99.90;;;;;;5054206;28;20048;-74
2021/11/13 05:24:41;;;;;;;22.77;11.93;;;3.60;99.90;;;;;;5054765;28;20049;-71
2021/11/13 05:27:09;;;;;;;24.17;12.83;;;3.70;99.90;;;;;;5056583;28;20049;-71
2021/11/13 05:29:37;;;;;;;27.27;12.63;;;3.70;99.90;;;;;;5054577;28;20052;-71
2021/11/13 05:32:06;;;;;;;25.67;12.67;;;3.70;99.90;;;;;;5054420;28;20562;-70
2021/11/13 05:34:33;;;;;;;24.63;12.50;;;3.70;99.90;;;;;;5053733;28;20390;-71
2021/11/13 05:37:00;;;;;;;22.83;12.40;;;3.70;99.90;;;;;;5053561;28;20122;-73
2021/11/13 05:39:27;;;;;;;25.90;12.33;;;3.80;99.90;;;;;;5054543;28;20048;-70
2021/11/13 05:41:54;;;;;;;25.10;12.03;;;3.70;99.90;;;;;;5054297;28;20101;-73
2021/11/13 05:44:21;;;;;;;22.97;12.50;;;3.80;99.90;;;;;;5054364;28;20558;-74
2021/11/13 05:46:52;;;;;;;25.97;13.33;;;3.70;99.90;;;;;;5052202;28;20048;-70
2021/11/13 05:49:19;;;;;;;24.90;12.57;;;3.90;99.90;;;;;;5052891;28;20516;-73
2021/11/13 05:51:47;;;;;;;22.83;12.23;;;3.90;99.90;;;;;;5053525;28;20509;-74
2021/11/13 05:54:14;;;;;;;24.40;12.67;;;3.90;99.90;;;;;;5053239;28;20076;-70
2021/11/13 05:56:41;;;;;;;23.53;12.10;;;3.90;99.90;;;;;;5052497;28;20045;-74
2021/11/13 05:59:08;;;;;;;26.63;12.77;;;3.80;99.90;;;;;;5052880;28;20045;-70
2021/11/13 06:01:35;;;;;;;27.00;12.50;;;3.80;99.90;;;;;;5053118;28;20191;-72
2021/11/13 06:04:06;;;;;;;25.80;12.53;;;3.80;99.90;;;;;;5054543;28;20459;-74
2021/11/13 06:06:33;;;;;;;25.00;12.33;;;3.90;99.90;;;;;;5052773;28;20061;-73
2021/11/13 06:09:00;;;;;;;26.57;12.97;;;3.90;99.90;;;;;;5054359;28;20095;-71
2021/11/13 06:11:28;;;;;;;23.67;11.87;;;3.70;99.90;;;;;;5054074;28;20052;-71
2021/11/13 06:13:54;;;;;;;25.10;12.37;;;3.80;99.90;;;;;;5054896;28;20161;-73
2021/11/13 06:16:22;;;;;;;27.43;14.07;;;3.80;99.90;;;;;;5052868;28;20121;-71
2021/11/13 06:18:48;;;;;;;21.40;12.13;;;3.70;99.90;;;;;;5054384;28;20121;-70
2021/11/13 06:21:17;;;;;;;23.43;12.10;;;3.70;99.90;;;;;;5053655;28;20062;-70
2021/11/13 06:23:45;;;;;;;21.90;11.33;;;3.70;99.90;;;;;;5052952;28;20106;-70
2021/11/13 06:26:14;;;;;;;22.90;11.60;;;3.80;99.90;;;;;;5053101;28;20655;-71
2021/11/13 06:28:41;;;;;;;20.67;10.57;;;3.80;99.90;;;;;;5054223;28;20045;-72
2021/11/13 06:31:08;;;;;;;22.23;10.90;;;3.80;99.90;;;;;;5058739;28;20052;-70
2021/11/13 06:33:36;;;;;;;19.03;10.17;;;3.70;99.90;;;;;;5059318;28;20486;-75
2021/11/13 06:36:05;;;;;;;22.83;10.13;;;3.80;99.90;;;;;;5057538;28;20048;-71
2021/11/13 06:38:33;;;;;;;22.77;11.13;;;3.70;99.90;;;;;;5056420;28;20048;-75
2021/11/13 06:41:00;;;;;;;22.87;11.87;;;3.80;99.90;;;;;;5053946;28;20117;-73
2021/11/13 06:43:27;;;;;;;23.50;11.63;;;3.70;99.90;;;;;;5055916;28;20049;-75
2021/11/13 06:45:54;;;;;;;22.77;11.03;;;3.70;99.90;;;;;;5055643;28;20172;-72
2021/11/13 06:48:25;;;;;;;21.00;10.87;;;3.80;99.90;;;;;;5056674;28;20048;-73
2021/11/13 06:50:52;;;;;;;22.13;10.97;;;3.80;99.90;;;;;;5054570;28;20135;-72
2021/11/13 06:53:21;;;;;;;24.17;11.83;;;3.90;99.90;;;;;;5056018;28;20430;-75
2021/11/13 06:55:50;;;;;;;22.70;11.33;;;3.80;99.90;;;;;;5058526;28;20511;-73
2021/11/13 06:58:18;;;;;;;22.03;11.37;;;3.80;99.90;;;;;;5059494;28;20049;-75
2021/11/13 07:00:46;;;;;;;26.87;12.73;;;3.80;99.90;;;;;;5058098;28;20045;-71
2021/11/13 07:03:13;;;;;;;24.77;12.40;;;3.90;99.90;;;;;;5055508;28;20451;-75
2021/11/13 07:05:40;;;;;;;23.13;12.13;;;3.90;99.90;;;;;;5053170;28;20045;-72
2021/11/13 07:08:07;;;;;;;23.97;12.03;;;3.90;99.90;;;;;;5055885;28;20052;-71
2021/11/13 07:10:34;;;;;;;23.53;12.47;;;3.90;99.90;;;;;;5053783;28;20052;-71
2021/11/13 07:13:03;;;;;;;22.73;11.20;;;3.90;99.90;;;;;;5057563;28;20048;-71
2021/11/13 07:15:32;;;;;;;23.40;11.93;;;3.90;99.90;;;;;;5056536;28;20370;-70
2021/11/13 07:18:01;;;;;;;23.23;12.57;;;3.90;99.90;;;;;;5056324;28;20531;-71
2021/11/13 07:20:29;;;;;;;21.50;11.57;;;3.90;99.90;;;;;;5056346;28;20056;-74
2021/11/13 07:22:56;;;;;;;24.30;12.47;;;3.90;99.90;;;;;;5056831;28;20566;-70
2021/11/13 07:25:25;;;;;;;24.13;11.77;;;3.90;99.90;;;;;;5056376;28;20073;-71
2021/11/13 07:27:53;;;;;;;23.43;12.60;;;3.90;99.90;;;;;;5057355;28;20508;-70
2021/11/13 07:30:24;;;;;;;25.00;12.33;;;4.00;99.90;;;;;;5057519;28;20689;-74
2021/11/13 07:32:51;;;;;;;25.37;11.07;;;3.90;99.90;;;;;;5061534;28;20070;-71
2021/11/13 07:35:18;;;;;;;23.53;11.33;;;4.00;99.90;;;;;;5060203;28;20563;-75
2021/11/13 07:37:45;;;;;;;23.13;12.63;;;4.00;99.90;;;;;;5060304;28;20095;-71
2021/11/13 07:40:12;;;;;;;22.47;12.10;;;4.00;99.90;;;;;;5060375;28;20075;-72
2021/11/13 07:42:40;;;;;;;26.90;13.53;;;4.00;99.90;;;;;;5059687;28;20044;-71
2021/11/13 07:45:07;;;;;;;28.23;13.60;;;4.00;99.90;;;;;;5060546;28;20455;-70
2021/11/13 07:47:40;;;;;;;23.20;12.80;;;4.10;99.90;;;;;;5058814;28;20048;-74
2021/11/13 07:50:08;;;;;;;25.93;12.93;;;4.00;99.90;;;;;;5062121;28;20070;-77
2021/11/13 07:52:35;;;;;;;22.83;11.90;;;4.10;99.90;;;;;;5060773;28;20048;-71
2021/11/13 07:55:03;;;;;;;26.63;12.53;;;4.00;99.90;;;;;;5059922;28;20112;-75
2021/11/13 07:57:30;;;;;;;24.50;12.80;;;4.10;99.90;;;;;;5059796;28;20045;-70
2021/11/13 07:59:57;;;;;;;23.80;13.03;;;4.00;99.90;;;;;;5060185;28;20095;-72
2021/11/13 08:02:24;;;;;;;23.90;12.20;;;4.00;99.90;;;;;;5059646;28;20082;-71
2021/11/13 08:04:54;;;;;;;23.10;11.90;;;4.10;99.90;;;;;;5058310;28;20048;-72
2021/11/13 08:07:21;;;;;;;23.93;12.37;;;4.10;99.90;;;;;;5059063;28;20129;-74
2021/11/13 08:09:48;;;;;;;22.87;11.47;;;4.20;99.90;;;;;;5061361;28;20141;-72
2021/11/13 08:12:15;;;;;;;22.93;11.47;;;4.20;99.90;;;;;;5059651;28;20045;-71
2021/11/13 08:14:42;;;;;;;21.30;11.50;;;4.10;99.90;;;;;;5058014;28;20089;-74
2021/11/13 08:17:09;;;;;;;20.80;11.10;;;4.10;99.90;;;;;;5059159;28;20087;-71
2021/11/13 08:19:36;;;;;;;23.27;11.47;;;4.20;99.90;;;;;;5059244;28;20054;-71
2021/11/13 08:22:04;;;;;;;22.07;10.77;;;4.30;99.90;;;;;;5058912;28;20253;-72
2021/11/13 08:24:31;;;;;;;20.17;10.97;;;4.30;99.90;;;;;;5059042;28;20059;-71
2021/11/13 08:26:58;;;;;;;20.20;11.13;;;4.30;99.90;;;;;;5058504;28;20818;-74
2021/11/13 08:29:25;;;;;;;22.07;11.30;;;4.40;99.90;;;;;;5059501;28;20119;-72
2021/11/13 08:31:52;;;;;;;23.87;11.27;;;4.40;99.90;;;;;;5059218;28;20394;-71
2021/11/13 08:34:19;;;;;;;19.90;10.53;;;4.50;99.90;;;;;;5057448;28;20093;-74
2021/11/13 08:36:46;;;;;;;19.33;10.73;;;4.50;99.90;;;;;;5057606;28;20066;-74
2021/11/13 08:39:15;;;;;;;26.40;10.47;;;4.60;99.90;;;;;;5057884;28;20053;-72
2021/11/13 08:41:42;;;;;;;19.43;9.63;;;4.60;99.90;;;;;;5057793;28;20211;-73
2021/11/13 08:44:09;;;;;;;20.57;9.83;;;4.60;99.90;;;;;;5059375;28;20048;-71
2021/11/13 08:46:36;;;;;;;21.20;10.60;;;4.50;99.90;;;;;;5057887;28;20048;-74
2021/11/13 08:49:04;;;;;;;19.77;9.70;;;4.60;99.90;;;;;;5059073;28;20772;-72
2021/11/13 08:51:32;;;;;;;20.70;11.20;;;4.70;99.90;;;;;;5058910;28;20543;-71
2021/11/13 08:53:59;;;;;;;18.27;8.90;;;4.80;99.90;;;;;;5058649;28;20578;-74
2021/11/13 08:56:30;;;;;;;20.40;10.03;;;4.70;99.90;;;;;;5058066;28;20076;-73
2021/11/13 08:58:59;;;;;;;19.70;9.60;;;4.80;99.90;;;;;;5058414;28;20087;-75
2021/11/13 09:01:29;;;;;;;18.57;9.70;;;4.90;99.90;;;;;;5058724;28;20052;-73
2021/11/13 09:03:57;;;;;;;17.93;9.83;;;5.00;99.90;;;;;;5058144;28;20453;-71
2021/11/13 09:06:29;;;;;;;19.50;10.00;;;5.10;99.90;;;;;;5057232;28;20059;-73
2021/11/13 09:08:58;;;;;;;18.83;9.40;;;5.10;99.90;;;;;;5058999;28;20058;-76
2021/11/13 09:11:27;;;;;;;16.70;9.50;;;5.30;99.90;;;;;;5057282;28;20147;-72
2021/11/13 09:13:55;;;;;;;15.48;9.10;;;5.50;99.90;;;;;;5057614;28;20049;-71
2021/11/13 09:16:22;;;;;;;16.95;8.95;;;5.50;99.90;;;;;;5057516;28;20070;-74
2021/11/13 09:18:49;;;;;;;17.13;9.25;;;5.70;99.90;;;;;;5057157;28;20151;-72
2021/11/13 09:21:17;;;;;;;16.50;8.52;;;5.90;99.90;;;;;;5055478;28;20147;-75
2021/11/13 09:23:44;;;;;;;17.63;9.40;;;5.90;99.90;;;;;;5055930;28;20107;-71
2021/11/13 09:26:11;;;;;;;20.20;9.40;;;5.80;99.90;;;;;;5055924;28;20048;-75
2021/11/13 09:28:40;;;;;;;18.58;10.02;;;5.60;99.90;;;;;;5057925;28;20052;-72
2021/11/13 09:31:08;;;;;;;15.02;8.38;;;5.60;99.90;;;;;;5056367;28;20474;-73
2021/11/13 09:33:35;;;;;;;17.77;9.07;;;5.70;99.90;;;;;;5056541;28;20055;-72
2021/11/13 09:36:03;;;;;;;16.83;9.05;;;5.70;99.90;;;;;;5055730;28;20149;-74
2021/11/13 09:38:32;;;;;;;23.25;9.63;;;5.70;99.90;;;;;;5057387;28;20090;-75
2021/11/13 09:41:02;;;;;;;18.20;9.57;;;5.90;99.90;;;;;;5057125;28;20098;-72
2021/11/13 09:43:30;;;;;;;17.00;9.00;;;5.70;99.90;;;;;;5057179;28;20044;-72
2021/11/13 09:46:01;;;;;;;17.23;8.70;;;5.90;99.90;;;;;;5054899;28;20052;-71
2021/11/13 09:48:29;;;;;;;17.00;9.63;;;5.80;99.90;;;;;;5056826;28;20041;-72
2021/11/13 09:50:57;;;;;;;18.98;9.40;;;5.70;99.90;;;;;;5056238;28;20045;-73
2021/11/13 09:53:26;;;;;;;18.38;10.45;;;5.60;99.90;;;;;;5054812;28;20048;-71
2021/11/13 09:55:54;;;;;;;18.25;9.30;;;5.60;99.90;;;;;;5054759;28;20051;-74
2021/11/13 09:58:23;;;;;;;18.25;9.65;;;5.60;99.90;;;;;;5054302;28;20102;-71
2021/11/13 10:00:53;;;;;;;18.50;9.55;;;5.70;99.90;;;;;;5051590;28;20054;-71
2021/11/13 10:03:22;;;;;;;18.25;9.88;;;5.70;99.90;;;;;;5053169;28;20072;-71
2021/11/13 10:05:50;;;;;;;17.55;9.77;;;5.70;99.90;;;;;;5053309;28;20528;-71
2021/11/13 10:08:18;;;;;;;18.13;8.57;;;5.80;99.90;;;;;;5055473;28;20852;-74
2021/11/13 10:10:45;;;;;;;20.35;10.05;;;6.00;99.90;;;;;;5056157;28;20045;-76
2021/11/13 10:13:32;;;;;;;15.43;8.35;;;6.10;99.90;;;;;;5053110;28;20048;-71
2021/11/13 10:16:01;;;;;;;16.97;9.17;;;6.20;99.90;;;;;;5051990;28;20052;-75
2021/11/13 10:18:31;;;;;;;17.58;9.32;;;6.50;99.90;;;;;;5051986;28;20117;-72
2021/11/13 10:21:06;;;;;;;15.93;8.35;;;6.40;99.90;;;;;;5053182;28;20044;-74
2021/11/13 10:23:38;;;;;;;18.55;10.00;;;6.40;99.90;;;;;;5054235;28;20052;-71
2021/11/13 10:26:09;;;;;;;16.88;9.18;;;6.20;99.90;;;;;;5053084;28;20082;-71
2021/11/13 10:29:00;;;;;;;15.57;8.93;;;6.10;99.90;;;;;;5055142;28;20080;-70
2021/11/13 10:31:32;;;;;;;17.75;9.35;;;6.10;99.90;;;;;;5050129;28;20049;-69
2021/11/13 10:34:03;;;;;;;16.80;8.88;;;6.10;99.90;;;;;;5052457;28;20056;-69
2021/11/13 10:36:32;;;;;;;16.67;9.48;;;6.20;99.90;;;;;;5050893;28;20079;-73
2021/11/13 10:39:05;;;;;;;18.67;9.32;;;6.30;99.90;;;;;;5050981;28;20109;-73
2021/11/13 10:41:32;;;;;;;15.80;8.93;;;6.30;99.90;;;;;;5052599;28;20048;-72
2021/11/13 10:44:00;;;;;;;20.42;9.88;;;6.40;99.90;;;;;;5051693;28;20048;-71
2021/11/13 10:46:27;;;;;;;16.92;9.70;;;6.40;99.90;;;;;;5051639;28;20102;-73
2021/11/13 10:48:56;;;;;;;17.55;9.82;;;6.20;99.90;;;;;;5053266;28;20044;-70
2021/11/13 10:51:28;;;;;;;16.35;9.13;;;6.20;99.90;;;;;;5054936;28;20501;-71
2021/11/13 10:53:56;;;;;;;16.17;9.15;;;6.20;99.90;;;;;;5054729;28;20060;-71
2021/11/13 10:56:25;;;;;;;22.80;10.02;;;6.00;99.90;;;;;;5055008;28;20048;-71
2021/11/13 10:58:56;;;;;;;20.90;9.50;;;6.10;99.90;;;;;;5054781;28;20461;-71
2021/11/13 11:01:34;;;;;;;18.05;9.68;;;6.20;99.90;;;;;;5053251;28;20499;-74
2021/11/13 11:04:10;;;;;;;17.23;9.35;;;6.20;99.90;;;;;;5052503;28;20052;-70
2021/11/13 11:06:41;;;;;;;17.05;9.38;;;6.20;99.90;;;;;;5057240;28;20493;-71
2021/11/13 11:09:16;;;;;;;18.95;9.35;;;6.10;99.90;;;;;;5057570;28;20040;-71
2021/11/13 11:11:44;;;;;;;18.88;9.23;;;6.20;99.90;;;;;;5057858;28;20387;-73
2021/11/13 11:14:13;;;;;;;19.52;10.30;;;6.00;99.90;;;;;;5057294;28;20045;-75
2021/11/13 11:16:41;;;;;;;15.90;9.55;;;6.00;99.90;;;;;;5054864;28;20056;-72
2021/11/13 11:19:10;;;;;;;18.08;10.38;;;5.90;99.90;;;;;;5055378;28;20056;-72
2021/11/13 11:21:48;;;;;;;18.45;9.70;;;6.00;99.90;;;;;;5057613;28;20053;-70
2021/11/13 11:24:18;;;;;;;19.73;10.50;;;6.10;99.90;;;;;;5058993;28;20044;-72
2021/11/13 11:26:52;;;;;;;18.02;10.13;;;6.10;99.90;;;;;;5058456;28;20049;-71
2021/11/13 11:29:19;;;;;;;17.98;9.18;;;6.10;99.90;;;;;;5055890;28;20101;-71
2021/11/13 11:31:49;;;;;;;18.17;9.55;;;6.20;99.90;;;;;;5057173;28;20048;-70
2021/11/13 11:34:32;;;;;;;17.73;9.45;;;6.20;99.90;;;;;;5056555;28;20404;-73
2021/11/13 11:37:08;;;;;;;20.92;9.70;;;6.00;99.90;;;;;;5057554;28;20110;-70
2021/11/13 11:39:35;;;;;;;16.88;8.98;;;6.00;99.90;;;;;;5058285;28;20057;-71
2021/11/13 11:42:02;;;;;;;16.77;9.30;;;6.00;99.90;;;;;;5056403;28;20048;-71
2021/11/13 11:44:30;;;;;;;15.38;8.98;;;6.00;99.90;;;;;;5054163;28;20375;-71
2021/11/13 11:46:57;;;;;;;16.80;9.25;;;6.00;99.90;;;;;;5053022;28;20509;-72
2021/11/13 11:49:26;;;;;;;18.08;9.93;;;6.20;99.90;;;;;;5054316;28;20045;-69
2021/11/13 11:51:53;;;;;;;17.95;9.38;;;6.10;99.90;;;;;;5059315;28;20048;-69
2021/11/13 11:54:22;;;;;;;21.23;10.05;;;6.10;99.90;;;;;;5058506;28;20100;-69
2021/11/13 11:56:49;;;;;;;18.17;9.02;;;6.30;99.90;;;;;;5057926;28;20084;-69
2021/11/13 11:59:16;;;;;;;19.35;9.63;;;6.40;99.90;;;;;;5057278;28;20489;-71
2021/11/13 12:01:44;;;;;;;17.58;9.13;;;6.40;99.90;;;;;;5058150;28;20100;-69
2021/11/13 12:04:19;;;;;;;18.45;9.25;;;6.50;99.90;;;;;;5056956;28;20057;-71
2021/11/13 12:06:50;;;;;;;18.90;9.65;;;6.50;99.90;;;;;;5058092;28;20101;-69
2021/11/13 12:09:18;;;;;;;18.77;10.38;;;6.50;99.90;;;;;;5059522;28;20102;-69
2021/11/13 12:11:47;;;;;;;18.13;8.93;;;6.40;99.90;;;;;;5058516;28;20573;-69
2021/11/13 12:14:39;;;;;;;15.43;9.00;;;6.30;99.90;;;;;;5056934;28;20072;-69
2021/11/13 12:17:34;;;;;;;16.55;8.98;;;6.40;99.90;;;;;;5041924;28;20063;-69
2021/11/13 12:20:29;;;;;;;18.38;9.32;;;6.50;99.90;;;;;;5057941;28;20093;-69
2021/11/13 12:23:10;;;;;;;15.05;8.27;;;6.50;99.90;;;;;;5057184;28;20601;-69
2021/11/13 12:25:39;;;;;;;13.65;8.63;;;6.50;99.90;;;;;;5055932;28;20067;-68
2021/11/13 12:28:20;;;;;;;16.30;8.20;;;6.60;99.90;;;;;;5056265;28;20113;-68
2021/11/13 12:30:51;;;;;;;15.95;8.70;;;6.70;99.90;;;;;;5056704;28;20083;-69
2021/11/13 12:33:55;;;;;;;18.83;9.00;;;6.70;99.90;;;;;;5057261;28;20170;-70
2021/11/13 12:36:25;;;;;;;15.90;8.85;;;6.70;99.90;;;;;;5055717;28;20143;-70
2021/11/13 12:39:01;;;;;;;15.82;8.63;;;6.80;99.90;;;;;;5057060;28;20143;-69
2021/11/13 12:41:40;;;;;;;17.30;9.00;;;6.60;99.90;;;;;;5057520;28;20044;-69
2021/11/13 12:44:23;;;;;;;15.65;8.40;;;6.70;99.90;;;;;;5057992;28;20048;-69
2021/11/13 12:46:51;;;;;;;18.08;8.85;;;6.60;99.90;;;;;;5057789;28;20056;-69
2021/11/13 12:49:40;;;;;;;16.30;9.38;;;6.60;99.90;;;;;;5056546;28;20044;-69